createdAt,value
2022-11-10T00:02:34.214Z,3.97
2022-11-10T00:05:21.194Z,4.20
2022-11-10T00:08:12.131Z,3.60
2022-11-10T00:11:01.353Z,4.83
2022-11-10T00:14:09.342Z,5.07
2022-11-10T00:17:04.297Z,5.03
2022-11-10T00:19:51.395Z,5.70
2022-11-10T00:22:39.820Z,4.13
2022-11-10T00:25:28.935Z,4.30
2022-11-10T00:28:16.128Z,4.13
2022-11-10T00:31:07.058Z,3.90
2022-11-10T00:33:53.821Z,4.27
2022-11-10T00:36:42.097Z,4.27
2022-11-10T00:39:29.662Z,4.13
2022-11-10T00:42:19.051Z,4.03
2022-11-10T00:45:07.491Z,3.47
2022-11-10T00:47:54.492Z,3.90
2022-11-10T00:50:41.616Z,5.17
2022-11-10T00:53:28.781Z,4.67
2022-11-10T00:56:16.085Z,4.23
2022-11-10T00:59:05.124Z,5.50
2022-11-10T01:01:52.095Z,4.50
2022-11-10T01:04:39.397Z,4.57
2022-11-10T01:07:26.550Z,4.97
2022-11-10T01:10:14.243Z,4.97
2022-11-10T01:13:01.794Z,4.50
2022-11-10T01:15:50.340Z,4.07
2022-11-10T01:18:37.812Z,4.40
2022-11-10T01:21:25.705Z,4.83
2022-11-10T01:24:12.825Z,4.40
2022-11-10T01:26:59.803Z,4.47
2022-11-10T01:29:46.822Z,4.17
2022-11-10T01:32:35.376Z,5.37
2022-11-10T01:35:22.439Z,5.03
2022-11-10T01:38:09.611Z,5.00
2022-11-10T01:40:57.667Z,5.07
2022-11-10T01:43:45.149Z,4.93
2022-11-10T01:46:32.496Z,5.10
2022-11-10T01:49:25.602Z,5.00
2022-11-10T01:52:14.855Z,5.13
2022-11-10T01:55:02.094Z,5.33
2022-11-10T01:57:49.677Z,5.57
2022-11-10T02:00:37.024Z,6.10
2022-11-10T02:03:30.094Z,6.13
2022-11-10T02:06:21.323Z,4.80
2022-11-10T02:09:08.856Z,5.93
2022-11-10T02:11:56.722Z,6.53
2022-11-10T02:14:44.381Z,5.30
2022-11-10T02:17:31.564Z,5.90
2022-11-10T02:20:20.871Z,5.97
2022-11-10T02:23:36.916Z,5.57
2022-11-10T02:26:27.509Z,5.03
2022-11-10T02:29:15.504Z,4.80
2022-11-10T02:32:02.908Z,5.83
2022-11-10T02:34:50.197Z,5.40
2022-11-10T02:37:37.355Z,6.23
2022-11-10T02:40:25.710Z,5.83
2022-11-10T02:43:16.299Z,5.73
2022-11-10T02:46:03.698Z,5.53
2022-11-10T02:48:51.102Z,6.07
2022-11-10T02:51:38.079Z,5.77
2022-11-10T02:54:25.430Z,6.80
2022-11-10T02:57:14.084Z,5.73
2022-11-10T03:00:00.967Z,5.87
2022-11-10T03:02:47.844Z,6.03
2022-11-10T03:05:34.769Z,6.67
2022-11-10T03:08:21.737Z,6.07
2022-11-10T03:11:09.196Z,6.67
2022-11-10T03:14:02.270Z,5.40
2022-11-10T03:16:49.887Z,6.67
2022-11-10T03:19:37.122Z,6.20
2022-11-10T03:22:24.494Z,5.57
2022-11-10T03:25:12.051Z,6.30
2022-11-10T03:27:59.003Z,5.97
2022-11-10T03:30:47.466Z,6.70
2022-11-10T03:33:34.334Z,6.13
2022-11-10T03:36:21.370Z,5.87
2022-11-10T03:39:08.195Z,5.23
2022-11-10T03:41:55.273Z,5.80
2022-11-10T03:44:42.371Z,5.97
2022-11-10T03:47:30.862Z,5.60
2022-11-10T03:50:18.501Z,6.07
2022-11-10T03:53:05.829Z,6.33
2022-11-10T03:55:52.733Z,5.83
2022-11-10T03:58:39.679Z,6.00
2022-11-10T04:01:26.735Z,5.67
2022-11-10T04:04:29.371Z,6.87
2022-11-10T04:07:33.964Z,7.27
2022-11-10T04:10:21.234Z,7.00
2022-11-10T04:13:25.888Z,6.80
2022-11-10T04:16:13.104Z,6.37
2022-11-10T04:19:01.060Z,6.20
2022-11-10T04:21:49.707Z,6.77
2022-11-10T04:24:36.815Z,5.70
2022-11-10T04:27:24.258Z,6.17
2022-11-10T04:30:12.107Z,7.00
2022-11-10T04:32:59.055Z,5.90
2022-11-10T04:35:46.128Z,6.77
2022-11-10T04:38:34.999Z,6.17
2022-11-10T04:41:22.166Z,6.60
2022-11-10T04:44:09.393Z,5.90
2022-11-10T04:46:56.850Z,6.50
2022-11-10T04:49:44.161Z,6.20
2022-11-10T04:52:31.704Z,6.30
2022-11-10T04:55:20.192Z,7.27
2022-11-10T04:58:07.693Z,6.53
2022-11-10T05:00:54.832Z,7.77
2022-11-10T05:03:41.996Z,6.47
2022-11-10T05:06:29.255Z,6.67
2022-11-10T05:09:16.368Z,5.97
2022-11-10T05:12:04.771Z,7.63
2022-11-10T05:14:51.655Z,6.60
2022-11-10T05:17:39.109Z,7.37
2022-11-10T05:20:27.269Z,5.87
2022-11-10T05:23:31.730Z,6.73
2022-11-10T05:26:19.746Z,6.37
2022-11-10T05:29:08.467Z,6.80
2022-11-10T05:31:55.743Z,7.30
2022-11-10T05:34:42.903Z,6.40
2022-11-10T05:37:29.827Z,7.60
2022-11-10T05:40:17.517Z,6.97
2022-11-10T05:43:04.349Z,7.30
2022-11-10T05:45:53.020Z,6.23
2022-11-10T05:48:39.916Z,7.03
2022-11-10T05:51:26.987Z,6.40
2022-11-10T05:54:13.925Z,5.57
2022-11-10T05:57:00.862Z,6.17
2022-11-10T05:59:48.059Z,5.83
2022-11-10T06:02:36.890Z,6.43
2022-11-10T06:05:26.950Z,6.13
2022-11-10T06:08:18.231Z,5.87
2022-11-10T06:11:05.611Z,5.53
2022-11-10T06:13:52.756Z,5.87
2022-11-10T06:16:39.746Z,5.97
2022-11-10T06:19:28.334Z,5.90
2022-11-10T06:22:15.628Z,5.53
2022-11-10T06:25:02.570Z,5.40
2022-11-10T06:27:49.323Z,6.40
2022-11-10T06:30:38.591Z,6.50
2022-11-10T06:33:26.191Z,6.17
2022-11-10T06:36:14.215Z,5.47
2022-11-10T06:39:01.432Z,5.77
2022-11-10T06:41:48.672Z,6.23
2022-11-10T06:44:36.118Z,4.67
2022-11-10T06:47:23.398Z,6.07
2022-11-10T06:50:11.012Z,5.90
2022-11-10T06:53:01.152Z,5.23
2022-11-10T06:55:48.522Z,5.27
2022-11-10T06:58:35.551Z,5.80
2022-11-10T07:01:26.754Z,5.30
2022-11-10T07:04:20.409Z,4.70
2022-11-10T07:07:08.356Z,4.67
2022-11-10T07:09:56.826Z,5.30
2022-11-10T07:12:44.085Z,5.20
2022-11-10T07:15:31.937Z,5.67
2022-11-10T07:18:19.168Z,5.13
2022-11-10T07:21:07.292Z,7.23
2022-11-10T07:23:54.323Z,5.17
2022-11-10T07:26:42.882Z,5.73
2022-11-10T07:29:29.698Z,5.10
2022-11-10T07:32:16.635Z,4.77
2022-11-10T07:35:03.509Z,5.27
2022-11-10T07:37:50.398Z,4.63
2022-11-10T07:40:38.051Z,5.10
2022-11-10T07:43:26.745Z,6.67
2022-11-10T07:46:13.732Z,5.83
2022-11-10T07:49:00.762Z,4.17
2022-11-10T07:51:47.820Z,4.40
2022-11-10T07:54:34.758Z,4.40
2022-11-10T07:57:21.963Z,4.30
2022-11-10T08:00:13.277Z,4.00
2022-11-10T08:03:03.834Z,3.93
2022-11-10T08:05:51.084Z,3.90
2022-11-10T08:08:38.056Z,4.40
2022-11-10T08:11:25.310Z,3.70
2022-11-10T08:14:12.535Z,4.20
2022-11-10T08:17:01.498Z,4.27
2022-11-10T08:19:48.324Z,4.10
2022-11-10T08:22:35.764Z,3.90
2022-11-10T08:25:22.916Z,4.20
2022-11-10T08:28:11.444Z,3.13
2022-11-10T08:31:04.294Z,3.27
2022-11-10T08:33:53.974Z,4.10
2022-11-10T08:36:40.815Z,3.77
2022-11-10T08:39:38.579Z,3.60
2022-11-10T08:42:25.982Z,3.40
2022-11-10T08:45:13.702Z,3.20
2022-11-10T08:48:02.118Z,3.20
2022-11-10T08:50:51.548Z,3.00
2022-11-10T08:53:38.382Z,2.83
2022-11-10T08:56:25.199Z,2.80
2022-11-10T08:59:12.160Z,3.63
2022-11-10T09:01:59.548Z,3.70
2022-11-10T09:04:46.738Z,2.87
2022-11-10T09:07:43.083Z,3.17
2022-11-10T09:10:29.894Z,3.97
2022-11-10T09:13:18.235Z,3.37
2022-11-10T09:16:06.362Z,3.87
2022-11-10T09:18:53.509Z,2.60
2022-11-10T09:21:41.085Z,3.03
2022-11-10T09:24:31.555Z,3.83
2022-11-10T09:27:19.388Z,3.70
2022-11-10T09:30:09.663Z,2.23
2022-11-10T09:33:01.112Z,3.63
2022-11-10T09:35:48.379Z,3.43
2022-11-10T09:38:36.113Z,2.93
2022-11-10T09:41:24.620Z,2.77
2022-11-10T09:44:17.515Z,3.47
2022-11-10T09:47:12.387Z,2.40
2022-11-10T09:50:06.186Z,2.80
2022-11-10T09:52:55.189Z,3.80
2022-11-10T09:55:45.570Z,2.37
2022-11-10T09:58:39.732Z,2.63
2022-11-10T10:01:39.991Z,2.50
2022-11-10T10:04:51.961Z,3.00
2022-11-10T10:07:47.861Z,2.80
2022-11-10T10:10:40.888Z,2.77
2022-11-10T10:13:46.829Z,2.57
2022-11-10T10:16:41.275Z,2.90
2022-11-10T10:19:38.774Z,3.20
2022-11-10T10:22:49.188Z,3.00
2022-11-10T10:25:38.895Z,3.63
2022-11-10T10:28:33.208Z,2.97
2022-11-10T10:31:26.060Z,2.40
2022-11-10T10:34:16.384Z,2.33
2022-11-10T10:37:05.165Z,3.60
2022-11-10T10:39:55.475Z,2.73
2022-11-10T10:42:42.613Z,2.50
2022-11-10T10:45:31.174Z,2.63
2022-11-10T10:48:30.771Z,2.90
2022-11-10T10:51:31.636Z,2.43
2022-11-10T10:54:27.639Z,2.37
2022-11-10T10:57:23.709Z,2.60
2022-11-10T11:00:22.241Z,3.13
2022-11-10T11:03:20.432Z,2.00
2022-11-10T11:06:20.556Z,2.83
2022-11-10T11:09:10.288Z,2.13
2022-11-10T11:12:02.920Z,2.60
2022-11-10T11:14:50.124Z,2.27
2022-11-10T11:17:37.543Z,2.20
2022-11-10T11:20:33.282Z,2.73
2022-11-10T11:23:41.214Z,2.40
2022-11-10T11:26:40.348Z,2.70
2022-11-10T11:30:15.446Z,2.30
2022-11-10T11:33:22.137Z,3.00
2022-11-10T11:36:22.367Z,2.50
2022-11-10T11:39:27.710Z,2.43
2022-11-10T11:42:26.133Z,2.30
2022-11-10T11:45:20.240Z,3.17
2022-11-10T11:48:37.635Z,2.67
2022-11-10T11:51:32.292Z,2.47
2022-11-10T11:54:42.906Z,2.63
2022-11-10T11:57:41.259Z,2.50
2022-11-10T12:00:35.991Z,2.00
2022-11-10T12:03:47.284Z,2.47
2022-11-10T12:06:45.600Z,2.73
2022-11-10T12:09:43.690Z,2.90
2022-11-10T12:12:56.197Z,2.97
2022-11-10T12:15:50.741Z,2.80
2022-11-10T12:18:43.602Z,2.60
2022-11-10T12:21:42.704Z,2.97
2022-11-10T12:25:05.632Z,2.33
2022-11-10T12:27:57.172Z,2.20
2022-11-10T12:30:45.477Z,2.57
2022-11-10T12:33:39.039Z,3.30
2022-11-10T12:36:30.597Z,2.83
2022-11-10T12:39:22.380Z,2.70
2022-11-10T12:42:16.673Z,2.20
2022-11-10T12:45:07.564Z,2.20
2022-11-10T12:47:55.522Z,2.33
2022-11-10T12:50:50.165Z,2.90
2022-11-10T12:53:41.150Z,2.13
2022-11-10T12:56:33.860Z,2.07
2022-11-10T12:59:41.304Z,2.33
2022-11-10T13:02:33.325Z,1.70
2022-11-10T13:05:28.429Z,2.30
2022-11-10T13:08:25.289Z,3.00
2022-11-10T13:11:25.478Z,1.93
2022-11-10T13:14:25.123Z,2.07
2022-11-10T13:17:52.634Z,1.93
2022-11-10T13:20:51.617Z,2.63
2022-11-10T13:24:16.553Z,1.90
2022-11-10T13:27:04.814Z,1.90
2022-11-10T13:29:57.170Z,1.97
2022-11-10T13:32:45.865Z,2.73
2022-11-10T13:35:54.963Z,1.83
2022-11-10T13:38:44.272Z,1.70
2022-11-10T13:41:34.563Z,1.63
2022-11-10T13:44:25.094Z,2.33
2022-11-10T13:47:35.898Z,2.17
2022-11-10T13:50:37.766Z,1.70
2022-11-10T13:53:36.590Z,2.50
2022-11-10T13:56:38.278Z,1.93
2022-11-10T13:59:27.840Z,2.50
2022-11-10T14:02:47.190Z,2.10
2022-11-10T14:06:06.040Z,1.43
2022-11-10T14:08:57.236Z,1.90
2022-11-10T14:11:50.125Z,1.93
2022-11-10T14:14:51.353Z,2.07
2022-11-10T14:17:44.023Z,1.50
2022-11-10T14:20:36.100Z,2.73
2022-11-10T14:23:30.449Z,2.00
2022-11-10T14:26:24.329Z,3.00
2022-11-10T14:29:32.263Z,2.43
2022-11-10T14:32:22.574Z,2.13
2022-11-10T14:35:20.622Z,1.97
2022-11-10T14:38:20.174Z,2.47
2022-11-10T14:41:18.330Z,1.80
2022-11-10T14:44:07.583Z,2.00
2022-11-10T14:46:54.903Z,2.47
2022-11-10T14:49:42.004Z,2.67
2022-11-10T14:52:29.088Z,1.80
2022-11-10T14:55:20.561Z,1.90
2022-11-10T14:58:14.934Z,1.83
2022-11-10T15:01:03.587Z,2.20
2022-11-10T15:03:51.194Z,2.03
2022-11-10T15:06:43.066Z,2.73
2022-11-10T15:09:33.947Z,2.17
2022-11-10T15:12:24.440Z,2.17
2022-11-10T15:15:23.280Z,2.77
2022-11-10T15:18:29.349Z,1.63
2022-11-10T15:21:18.580Z,1.90
2022-11-10T15:24:07.572Z,3.87
2022-11-10T15:26:54.524Z,1.70
2022-11-10T15:29:41.394Z,2.40
2022-11-10T15:32:35.602Z,2.00
2022-11-10T15:35:29.981Z,1.73
2022-11-10T15:38:30.707Z,2.10
2022-11-10T15:41:27.298Z,1.47
2022-11-10T15:44:16.737Z,1.70
2022-11-10T15:47:03.827Z,1.93
2022-11-10T15:49:52.363Z,1.80
2022-11-10T15:52:39.636Z,1.70
2022-11-10T15:55:27.051Z,1.70
2022-11-10T15:58:16.571Z,2.10
2022-11-10T16:01:04.768Z,2.33
2022-11-10T16:03:51.883Z,2.23
2022-11-10T16:06:41.154Z,1.87
2022-11-10T16:09:28.204Z,2.23
2022-11-10T16:12:19.376Z,2.60
2022-11-10T16:15:12.725Z,2.40
2022-11-10T16:17:59.918Z,2.03
2022-11-10T16:20:46.919Z,2.27
2022-11-10T16:23:35.391Z,2.40
2022-11-10T16:26:24.576Z,1.97
2022-11-10T16:29:13.802Z,2.03
2022-11-10T16:32:01.224Z,2.40
2022-11-10T16:34:48.133Z,1.90
2022-11-10T16:37:35.333Z,2.60
2022-11-10T16:40:25.091Z,1.80
2022-11-10T16:43:16.592Z,2.30
2022-11-10T16:46:06.744Z,2.70
2022-11-10T16:48:55.556Z,2.70
2022-11-10T16:51:48.604Z,2.20
2022-11-10T16:54:35.899Z,2.23
2022-11-10T16:57:24.519Z,3.57
2022-11-10T17:00:13.043Z,3.57
2022-11-10T17:03:05.347Z,2.80
2022-11-10T17:05:52.588Z,2.80
2022-11-10T17:08:39.595Z,2.57
2022-11-10T17:11:27.195Z,2.17
2022-11-10T17:14:16.457Z,3.70
2022-11-10T17:17:03.816Z,2.50
2022-11-10T17:19:52.531Z,3.30
2022-11-10T17:22:39.901Z,3.63
2022-11-10T17:25:30.103Z,3.23
2022-11-10T17:28:19.789Z,3.27
2022-11-10T17:31:08.288Z,2.93
2022-11-10T17:33:55.667Z,2.90
2022-11-10T17:36:42.929Z,2.77
2022-11-10T17:39:30.010Z,2.67
2022-11-10T17:42:17.111Z,2.50
2022-11-10T17:45:04.200Z,2.33
2022-11-10T17:47:53.603Z,2.57
2022-11-10T17:50:42.901Z,2.00
2022-11-10T17:53:29.992Z,2.60
2022-11-10T17:56:17.925Z,2.00
2022-11-10T17:59:05.383Z,2.40
2022-11-10T18:01:52.767Z,2.43
2022-11-10T18:04:41.180Z,2.03
2022-11-10T18:07:28.335Z,1.70
2022-11-10T18:10:16.295Z,1.90
2022-11-10T18:13:03.583Z,2.33
2022-11-10T18:15:54.201Z,2.33
2022-11-10T18:18:42.006Z,18.23
2022-11-10T18:21:30.621Z,7.30
2022-11-10T18:24:18.122Z,3.63
2022-11-10T18:27:05.052Z,2.20
2022-11-10T18:29:52.016Z,2.87
2022-11-10T18:32:38.846Z,2.10
2022-11-10T18:35:25.661Z,2.53
2022-11-10T18:38:14.363Z,2.50
2022-11-10T18:41:25.914Z,2.27
2022-11-10T18:44:13.607Z,2.37
2022-11-10T18:47:00.903Z,2.53
2022-11-10T18:49:48.284Z,2.90
2022-11-10T18:52:35.135Z,3.73
2022-11-10T18:55:23.491Z,4.37
2022-11-10T18:58:11.083Z,2.80
2022-11-10T19:01:04.266Z,2.50
2022-11-10T19:03:51.631Z,4.00
2022-11-10T19:06:39.069Z,3.33
2022-11-10T19:09:26.403Z,2.03
2022-11-10T19:12:14.894Z,2.73
2022-11-10T19:15:01.741Z,1.93
2022-11-10T19:17:48.707Z,2.43
2022-11-10T19:20:36.712Z,3.77
2022-11-10T19:23:26.067Z,2.53
2022-11-10T19:26:20.872Z,3.17
2022-11-10T19:29:11.218Z,3.57
2022-11-10T19:31:58.164Z,3.30
2022-11-10T19:34:45.124Z,3.27
2022-11-10T19:37:35.084Z,2.90
2022-11-10T19:40:22.753Z,2.97
2022-11-10T19:43:10.196Z,3.67
2022-11-10T19:46:02.438Z,3.77
2022-11-10T19:48:49.561Z,2.90
2022-11-10T19:51:36.962Z,2.57
2022-11-10T19:54:24.663Z,2.93
2022-11-10T19:57:11.733Z,3.50
2022-11-10T19:59:58.904Z,2.80
2022-11-10T20:02:47.295Z,4.03
2022-11-10T20:05:34.219Z,3.40
2022-11-10T20:08:21.303Z,3.27
2022-11-10T20:11:11.058Z,2.67
2022-11-10T20:14:00.342Z,3.70
2022-11-10T20:16:47.400Z,4.23
2022-11-10T20:19:40.778Z,3.90
2022-11-10T20:22:28.527Z,4.20
2022-11-10T20:25:15.695Z,2.83
2022-11-10T20:28:06.117Z,3.23
2022-11-10T20:30:57.391Z,3.43
2022-11-10T20:33:45.582Z,2.63
2022-11-10T20:36:34.764Z,4.23
2022-11-10T20:39:21.957Z,4.83
2022-11-10T20:42:10.294Z,3.90
2022-11-10T20:44:57.411Z,3.80
2022-11-10T20:47:44.265Z,3.40
2022-11-10T20:50:31.174Z,3.83
2022-11-10T20:53:19.563Z,3.30
2022-11-10T20:56:07.925Z,3.40
2022-11-10T20:58:55.268Z,3.80
2022-11-10T21:01:42.288Z,4.40
2022-11-10T21:04:29.561Z,3.37
2022-11-10T21:07:16.865Z,4.27
2022-11-10T21:10:06.696Z,3.97
2022-11-10T21:12:54.602Z,3.93
2022-11-10T21:15:41.916Z,3.63
2022-11-10T21:18:31.371Z,3.60
2022-11-10T21:21:23.101Z,4.77
2022-11-10T21:24:11.222Z,3.97
2022-11-10T21:26:59.581Z,4.50
2022-11-10T21:29:46.950Z,5.47
2022-11-10T21:32:33.944Z,5.00
2022-11-10T21:35:21.812Z,4.10
2022-11-10T21:38:11.831Z,5.60
2022-11-10T21:40:59.098Z,4.57
2022-11-10T21:43:47.788Z,4.07
2022-11-10T21:46:34.829Z,4.90
2022-11-10T21:49:22.432Z,4.93
2022-11-10T21:52:09.567Z,4.57
2022-11-10T21:54:56.416Z,4.60
2022-11-10T21:57:43.393Z,4.93
2022-11-10T22:00:32.057Z,5.30
2022-11-10T22:03:19.664Z,4.80
2022-11-10T22:06:08.683Z,4.73
2022-11-10T22:08:55.769Z,6.97
2022-11-10T22:12:00.052Z,4.67
2022-11-10T22:15:04.429Z,5.90
2022-11-10T22:18:10.406Z,5.40
2022-11-10T22:20:57.513Z,5.60
2022-11-10T22:24:01.927Z,5.13
2022-11-10T22:26:48.917Z,6.03
2022-11-10T22:29:36.362Z,6.20
2022-11-10T22:32:23.518Z,5.60
2022-11-10T22:35:33.028Z,5.23
2022-11-10T22:38:20.135Z,5.47
2022-11-10T22:41:25.249Z,6.03
2022-11-10T22:44:14.455Z,6.07
2022-11-10T22:47:01.369Z,5.80
2022-11-10T22:49:48.285Z,5.77
2022-11-10T22:52:36.805Z,6.33
2022-11-10T22:55:23.865Z,6.00
2022-11-10T22:58:10.851Z,6.80
2022-11-10T23:01:05.956Z,7.00
2022-11-10T23:03:53.222Z,7.27
2022-11-10T23:06:40.442Z,5.97
2022-11-10T23:09:28.972Z,6.40
2022-11-10T23:12:16.068Z,6.53
2022-11-10T23:15:03.076Z,6.97
2022-11-10T23:17:50.314Z,6.43
2022-11-10T23:20:37.487Z,6.40
2022-11-10T23:23:24.692Z,6.53
2022-11-10T23:26:15.624Z,6.13
2022-11-10T23:29:02.693Z,6.73
2022-11-10T23:31:49.891Z,6.87
2022-11-10T23:34:36.778Z,6.63
2022-11-10T23:37:23.844Z,6.27
2022-11-10T23:40:12.480Z,6.83
2022-11-10T23:43:01.085Z,5.83
2022-11-10T23:46:05.979Z,7.13
2022-11-10T23:48:54.045Z,6.67
2022-11-10T23:51:41.210Z,7.23
2022-11-10T23:54:28.134Z,6.17
2022-11-10T23:57:15.054Z,8.37
